Time;durP1;ratioP1;P1;durP2;ratioP2;P2;SDS_P1;SDS_P2;PMS_P1;PMS_P2;Temp;Humidity;BMP_temperature;BMP_pressure;BME280_temperature;BME280_humidity;BME280_pressure;Samples;Min_cycle;Max_cycle;Signal;HPM_P1;HPM_P2
2023/08/08 00:01:55;;;;;;;1.83;0.80;;;19.30;71.60;;;;;;2411021;55;21495;-69
2023/08/08 00:04:25;;;;;;;1.92;0.90;;;19.20;71.60;;;;;;2403065;56;20997;-69
2023/08/08 00:06:54;;;;;;;2.12;0.93;;;19.20;71.60;;;;;;2205422;56;21804;-70
2023/08/08 00:09:21;;;;;;;2.12;0.80;;;19.20;71.60;;;;;;2417678;55;20971;-69
2023/08/08 00:11:49;;;;;;;2.47;0.90;;;19.20;71.60;;;;;;2405415;56;21044;-68
2023/08/08 00:14:22;;;;;;;1.85;0.80;;;19.20;71.60;;;;;;2413328;55;20997;-69
2023/08/08 00:16:48;;;;;;;1.70;0.70;;;19.20;71.20;;;;;;2425537;55;21053;-69
2023/08/08 00:19:15;;;;;;;2.25;1.00;;;19.10;71.80;;;;;;2217871;56;21858;-70
2023/08/08 00:21:41;;;;;;;4.62;0.80;;;19.10;71.80;;;;;;2217695;56;20966;-68
2023/08/08 00:24:08;;;;;;;2.45;0.90;;;19.10;71.80;;;;;;2437256;55;22195;-68
2023/08/08 00:26:38;;;;;;;2.42;1.10;;;19.10;71.80;;;;;;2414219;55;20950;-69
2023/08/08 00:29:06;;;;;;;1.20;0.50;;;19.10;71.60;;;;;;2219502;56;20985;-70
2023/08/08 00:31:34;;;;;;;1.83;0.88;;;19.10;71.90;;;;;;2222079;56;20974;-69
2023/08/08 00:34:01;;;;;;;2.30;0.90;;;19.00;71.80;;;;;;2440886;55;20984;-69
2023/08/08 00:36:29;;;;;;;2.30;0.90;;;19.10;71.90;;;;;;2220357;56;21010;-68
2023/08/08 00:38:57;;;;;;;1.60;0.70;;;19.10;72.00;;;;;;2222470;56;21009;-69
2023/08/08 00:41:23;;;;;;;1.52;0.65;;;19.10;72.00;;;;;;2447366;55;20961;-68
2023/08/08 00:43:50;;;;;;;1.70;0.60;;;19.00;71.90;;;;;;2446081;55;20982;-70
2023/08/08 00:46:20;;;;;;;1.45;0.60;;;19.00;72.00;;;;;;2445155;55;20985;-71
2023/08/08 00:48:47;;;;;;;1.52;0.75;;;19.00;71.70;;;;;;2445921;55;20954;-68
2023/08/08 00:51:17;;;;;;;1.98;0.80;;;19.00;71.90;;;;;;2227606;56;20969;-68
2023/08/08 00:53:44;;;;;;;1.90;0.75;;;19.00;72.00;;;;;;2448546;55;20989;-69
2023/08/08 00:56:13;;;;;;;1.95;0.60;;;19.00;72.10;;;;;;2444278;55;20954;-69
2023/08/08 00:58:40;;;;;;;2.17;0.70;;;19.00;72.00;;;;;;2420360;55;20942;-69
2023/08/08 01:01:08;;;;;;;2.10;0.75;;;19.00;72.00;;;;;;2445378;55;21524;-67
2023/08/08 01:03:35;;;;;;;1.60;0.70;;;19.00;72.00;;;;;;2206063;56;21442;-67
2023/08/08 01:06:29;;;;;;;1.75;0.75;;;19.00;72.10;;;;;;2447083;55;20961;-69
2023/08/08 01:09:00;;;;;;;2.10;0.95;;;19.00;70.80;;;;;;2448028;55;20977;-69
2023/08/08 01:11:28;;;;;;;2.17;0.85;;;19.00;71.90;;;;;;2224721;56;21575;-67
2023/08/08 01:13:54;;;;;;;2.33;0.80;;;19.00;71.90;;;;;;2444951;55;21085;-69
2023/08/08 01:16:21;;;;;;;1.92;0.80;;;19.00;72.10;;;;;;2445881;55;21017;-70
2023/08/08 01:18:50;;;;;;;1.58;0.80;;;19.00;72.10;;;;;;2217343;56;21808;-68
2023/08/08 01:21:17;;;;;;;2.30;1.00;;;19.00;72.20;;;;;;2219342;56;20969;-70
2023/08/08 01:23:57;;;;;;;1.75;0.80;;;19.00;72.10;;;;;;2227553;56;20977;-70
2023/08/08 01:26:23;;;;;;;1.70;0.70;;;19.00;71.30;;;;;;2451181;55;20986;-70
2023/08/08 01:28:54;;;;;;;1.70;0.70;;;19.00;72.30;;;;;;2221969;56;21039;-72
2023/08/08 01:31:23;;;;;;;1.58;0.80;;;19.10;72.20;;;;;;2208427;56;21117;-69
2023/08/08 01:33:50;;;;;;;2.03;0.85;;;19.00;72.10;;;;;;2226292;56;20965;-69
2023/08/08 01:36:32;;;;;;;2.20;0.88;;;19.00;72.20;;;;;;2446685;55;20977;-71
2023/08/08 01:39:04;;;;;;;1.48;0.65;;;19.00;71.20;;;;;;2444343;55;20950;-69
2023/08/08 01:41:41;;;;;;;2.20;0.80;;;19.00;72.30;;;;;;2448641;55;20942;-71
2023/08/08 01:44:08;;;;;;;1.80;0.77;;;19.00;72.30;;;;;;2226476;56;20969;-69
2023/08/08 01:46:36;;;;;;;3.08;1.00;;;19.10;72.50;;;;;;2228990;56;20969;-70
2023/08/08 01:49:03;;;;;;;1.98;0.90;;;19.00;72.30;;;;;;2229899;56;20985;-70
2023/08/08 01:51:29;;;;;;;1.77;0.70;;;19.10;72.50;;;;;;2211750;56;22228;-69
2023/08/08 01:53:57;;;;;;;2.40;0.90;;;19.10;72.50;;;;;;2437132;55;21868;-68
2023/08/08 01:56:27;;;;;;;1.42;0.70;;;19.10;72.40;;;;;;2223963;56;21053;-70
2023/08/08 01:58:54;;;;;;;2.10;0.90;;;19.10;72.20;;;;;;2446274;55;21562;-71
2023/08/08 02:01:20;;;;;;;2.75;0.70;;;19.10;72.50;;;;;;2447162;55;21494;-71
2023/08/08 02:03:47;;;;;;;2.30;0.77;;;19.10;72.50;;;;;;2223610;56;21422;-68
2023/08/08 02:06:15;;;;;;;1.83;0.68;;;19.20;72.60;;;;;;2443672;55;21041;-68
2023/08/08 02:08:41;;;;;;;2.10;1.00;;;19.10;72.40;;;;;;2418040;56;21053;-69
2023/08/08 02:11:07;;;;;;;2.05;0.90;;;19.10;72.40;;;;;;2443782;55;22034;-66
2023/08/08 02:13:34;;;;;;;2.15;0.80;;;19.20;72.50;;;;;;2437148;55;20977;-69
2023/08/08 02:16:00;;;;;;;1.37;0.60;;;19.20;72.50;;;;;;2207412;57;21040;-69
2023/08/08 02:18:27;;;;;;;1.83;0.80;;;19.20;72.50;;;;;;2425485;55;20985;-67
2023/08/08 02:20:57;;;;;;;1.67;0.70;;;19.10;72.20;;;;;;2431145;55;20968;-69
2023/08/08 02:23:27;;;;;;;1.52;0.65;;;19.20;72.40;;;;;;2435553;55;20968;-68
2023/08/08 02:25:57;;;;;;;2.03;0.80;;;19.20;72.40;;;;;;2223457;56;22144;-69
2023/08/08 02:28:24;;;;;;;2.22;0.90;;;19.20;72.40;;;;;;2203401;57;20992;-70
2023/08/08 02:30:51;;;;;;;1.48;0.60;;;19.20;72.30;;;;;;2430011;55;20953;-70
2023/08/08 02:33:19;;;;;;;1.90;0.68;;;19.20;72.30;;;;;;2419981;55;20985;-68
2023/08/08 02:35:45;;;;;;;2.28;0.80;;;19.20;72.30;;;;;;2442934;55;20950;-69
2023/08/08 02:38:11;;;;;;;1.48;0.60;;;19.20;72.20;;;;;;2439433;55;20973;-67
2023/08/08 02:40:38;;;;;;;2.87;1.00;;;19.20;72.10;;;;;;2440827;55;21014;-67
2023/08/08 02:43:05;;;;;;;1.52;0.65;;;19.20;72.10;;;;;;2202658;57;21072;-68
2023/08/08 02:45:31;;;;;;;1.60;0.75;;;19.10;71.90;;;;;;2413059;56;21097;-70
2023/08/08 02:47:59;;;;;;;2.45;0.90;;;19.10;71.90;;;;;;2226282;56;21001;-67
2023/08/08 02:50:25;;;;;;;2.12;0.85;;;19.10;72.00;;;;;;2447671;55;21842;-70
2023/08/08 02:52:55;;;;;;;2.10;0.80;;;19.10;72.00;;;;;;2421932;56;21415;-69
2023/08/08 02:55:21;;;;;;;2.72;0.68;;;19.00;72.00;;;;;;2441956;55;20990;-70
2023/08/08 02:57:48;;;;;;;2.20;0.77;;;19.10;72.80;;;;;;2221695;56;22510;-67
2023/08/08 03:00:14;;;;;;;2.20;0.70;;;19.00;71.90;;;;;;2444533;55;20978;-69
2023/08/08 03:02:41;;;;;;;1.92;0.70;;;19.00;71.90;;;;;;2420075;55;21034;-68
2023/08/08 03:05:08;;;;;;;3.50;0.73;;;19.00;71.80;;;;;;2438582;55;21619;-68
2023/08/08 03:07:39;;;;;;;2.70;0.90;;;18.90;71.50;;;;;;2433442;55;22010;-71
2023/08/08 03:10:06;;;;;;;2.85;0.70;;;18.90;71.70;;;;;;2418477;55;21008;-69
2023/08/08 03:12:37;;;;;;;1.23;0.60;;;18.80;71.40;;;;;;2419500;55;21510;-70
2023/08/08 03:15:05;;;;;;;2.00;0.73;;;18.90;71.40;;;;;;2423725;55;22243;-71
2023/08/08 03:17:31;;;;;;;1.67;0.80;;;18.80;71.40;;;;;;2193891;57;21462;-70
2023/08/08 03:19:59;;;;;;;2.03;0.90;;;18.80;71.50;;;;;;2418781;55;20993;-67
2023/08/08 03:22:26;;;;;;;1.73;0.70;;;18.80;71.60;;;;;;2210910;56;21013;-69
2023/08/08 03:24:56;;;;;;;2.80;0.70;;;18.70;71.60;;;;;;2217010;56;21017;-71
2023/08/08 03:27:25;;;;;;;1.70;0.70;;;18.70;71.70;;;;;;2439812;55;21014;-69
2023/08/08 03:29:51;;;;;;;1.70;0.70;;;18.70;71.70;;;;;;2434398;55;21057;-69
2023/08/08 03:32:19;;;;;;;2.35;0.75;;;18.60;71.70;;;;;;2432957;55;21005;-68
2023/08/08 03:34:45;;;;;;;1.30;0.60;;;18.60;71.70;;;;;;2221472;56;20965;-71
2023/08/08 03:37:11;;;;;;;1.65;0.65;;;18.60;71.80;;;;;;2440151;55;21022;-69
2023/08/08 03:39:39;;;;;;;1.62;0.60;;;18.50;71.70;;;;;;2441199;55;22140;-67
2023/08/08 03:42:08;;;;;;;2.58;0.70;;;18.50;71.40;;;;;;2225024;56;20989;-68
2023/08/08 03:44:38;;;;;;;1.80;0.70;;;18.50;71.40;;;;;;2218904;56;21097;-69
2023/08/08 03:47:11;;;;;;;1.55;0.68;;;18.40;71.40;;;;;;2211098;56;21975;-68
2023/08/08 03:49:43;;;;;;;1.67;0.62;;;18.40;71.50;;;;;;2443021;55;21571;-69
2023/08/08 03:52:10;;;;;;;4.18;0.80;;;18.40;71.70;;;;;;2439222;55;20962;-67
2023/08/08 03:54:39;;;;;;;1.77;0.77;;;18.30;71.60;;;;;;2218309;56;20997;-67
2023/08/08 03:57:06;;;;;;;3.17;0.82;;;18.30;71.60;;;;;;2440775;55;20986;-70
2023/08/08 03:59:34;;;;;;;1.58;0.75;;;18.20;71.60;;;;;;2215447;56;21128;-69
2023/08/08 04:02:00;;;;;;;1.60;0.70;;;18.20;71.70;;;;;;2197527;57;20995;-70
2023/08/08 04:04:30;;;;;;;2.00;0.75;;;18.20;71.60;;;;;;2436503;55;21496;-69
2023/08/08 04:06:58;;;;;;;1.77;0.70;;;18.10;71.20;;;;;;2212785;56;20989;-68
2023/08/08 04:09:24;;;;;;;1.40;0.68;;;18.10;71.40;;;;;;2441371;55;20970;-71
2023/08/08 04:11:51;;;;;;;2.53;0.90;;;18.10;71.50;;;;;;2196890;57;20973;-68
2023/08/08 04:14:18;;;;;;;3.05;0.73;;;18.00;71.50;;;;;;2440411;55;22228;-69
2023/08/08 04:16:45;;;;;;;2.00;0.60;;;18.00;72.30;;;;;;2221148;56;21049;-69
2023/08/08 04:19:11;;;;;;;1.80;0.82;;;18.00;71.70;;;;;;2415118;55;21333;-69
2023/08/08 04:21:39;;;;;;;2.00;0.80;;;17.90;71.60;;;;;;2436536;55;21059;-70
2023/08/08 04:24:07;;;;;;;1.80;0.85;;;17.90;71.70;;;;;;2444039;55;21430;-68
2023/08/08 04:26:38;;;;;;;2.95;0.70;;;17.90;71.70;;;;;;2442916;55;21061;-69
2023/08/08 04:29:08;;;;;;;1.85;0.70;;;17.80;71.70;;;;;;2222206;56;20908;-68
2023/08/08 04:31:34;;;;;;;1.70;0.70;;;17.80;71.60;;;;;;2217391;56;21854;-70
2023/08/08 04:34:01;;;;;;;1.92;0.68;;;17.80;71.60;;;;;;2426718;55;21585;-70
2023/08/08 04:36:29;;;;;;;1.62;0.75;;;17.80;71.60;;;;;;2444116;55;22123;-68
2023/08/08 04:38:58;;;;;;;2.83;0.80;;;17.70;71.60;;;;;;2442942;55;21026;-68
2023/08/08 04:41:29;;;;;;;2.42;0.80;;;17.70;71.50;;;;;;2443558;55;21577;-67
2023/08/08 04:43:58;;;;;;;2.53;0.62;;;17.70;71.60;;;;;;2435890;55;21491;-67
2023/08/08 04:46:31;;;;;;;1.33;0.60;;;17.70;71.70;;;;;;2422085;55;20973;-67
2023/08/08 04:48:58;;;;;;;2.87;0.90;;;17.60;71.50;;;;;;2426719;55;21523;-68
2023/08/08 04:51:25;;;;;;;2.12;0.80;;;17.60;71.70;;;;;;2432503;55;21090;-70
2023/08/08 04:53:55;;;;;;;2.22;0.80;;;17.60;71.90;;;;;;2409985;55;20976;-68
2023/08/08 04:56:22;;;;;;;1.80;0.62;;;17.50;71.90;;;;;;2396970;56;21546;-68
2023/08/08 04:58:49;;;;;;;1.73;0.70;;;17.50;71.80;;;;;;2185551;57;21227;-69
2023/08/08 05:01:17;;;;;;;1.90;0.80;;;17.50;71.90;;;;;;2396220;56;22034;-70
2023/08/08 05:03:45;;;;;;;2.83;1.20;;;17.50;71.90;;;;;;2186926;56;20978;-71
2023/08/08 05:06:12;;;;;;;2.00;0.90;;;17.50;71.90;;;;;;2426506;55;20943;-71
2023/08/08 05:08:41;;;;;;;3.35;0.70;;;17.40;71.90;;;;;;2193900;56;22283;-69
2023/08/08 05:11:12;;;;;;;1.95;0.90;;;17.40;71.90;;;;;;2399559;55;21484;-67
2023/08/08 05:13:40;;;;;;;1.58;0.65;;;17.40;71.80;;;;;;2411429;55;21441;-68
2023/08/08 05:16:11;;;;;;;2.50;0.80;;;17.40;72.00;;;;;;2173812;56;20980;-70
2023/08/08 05:18:40;;;;;;;1.77;0.73;;;17.40;72.00;;;;;;2377929;56;21689;-70
2023/08/08 05:21:11;;;;;;;1.48;0.70;;;17.40;71.90;;;;;;2168722;57;21050;-68
2023/08/08 05:23:40;;;;;;;1.60;0.70;;;17.30;71.90;;;;;;2169402;57;21661;-68
2023/08/08 05:26:12;;;;;;;1.45;0.65;;;17.30;71.80;;;;;;2179955;56;22625;-69
2023/08/08 05:28:39;;;;;;;2.12;0.60;;;17.40;71.80;;;;;;2402607;55;21791;-68
2023/08/08 05:31:06;;;;;;;1.80;0.80;;;17.30;72.10;;;;;;2384554;55;20935;-70
2023/08/08 05:33:41;;;;;;;2.12;0.90;;;17.30;72.30;;;;;;2396996;55;21045;-72
2023/08/08 05:36:11;;;;;;;2.30;0.73;;;17.30;72.30;;;;;;2392310;55;21041;-68
2023/08/08 05:38:52;;;;;;;1.92;0.90;;;17.30;72.40;;;;;;2160566;56;20957;-67
2023/08/08 05:41:23;;;;;;;1.55;0.70;;;17.30;71.90;;;;;;2384560;55;21636;-70
2023/08/08 05:43:52;;;;;;;1.90;0.73;;;17.30;72.40;;;;;;2160156;56;21618;-69
2023/08/08 05:46:20;;;;;;;2.00;0.80;;;17.30;72.80;;;;;;2393093;55;22223;-67
2023/08/08 05:48:51;;;;;;;4.53;1.20;;;17.30;72.90;;;;;;2188418;56;21025;-69
2023/08/08 05:51:25;;;;;;;2.40;1.10;;;17.40;73.10;;;;;;2169224;56;21446;-67
2023/08/08 05:53:51;;;;;;;2.55;1.12;;;17.40;72.80;;;;;;2408583;55;22363;-69
2023/08/08 05:56:21;;;;;;;3.00;1.10;;;17.40;73.30;;;;;;2404832;55;21117;-68
2023/08/08 05:58:52;;;;;;;2.08;0.80;;;17.40;73.20;;;;;;2177958;56;20981;-68
2023/08/08 06:01:21;;;;;;;3.70;0.90;;;17.50;73.30;;;;;;2199481;56;21522;-67
2023/08/08 06:03:52;;;;;;;2.47;1.10;;;17.50;73.50;;;;;;2376502;55;21037;-68
2023/08/08 06:06:21;;;;;;;2.65;0.90;;;17.50;73.60;;;;;;2395206;55;21024;-67
2023/08/08 06:08:52;;;;;;;2.20;1.05;;;17.60;73.70;;;;;;2390379;55;21020;-68
2023/08/08 06:11:22;;;;;;;2.60;1.00;;;17.60;73.70;;;;;;2396821;55;21586;-67
2023/08/08 06:13:55;;;;;;;3.05;1.10;;;17.60;73.70;;;;;;2400734;55;21542;-68
2023/08/08 06:16:24;;;;;;;2.65;1.10;;;17.70;73.80;;;;;;2369263;56;21865;-68
2023/08/08 06:19:04;;;;;;;2.17;0.88;;;17.70;73.90;;;;;;2377210;55;22262;-66
2023/08/08 06:21:45;;;;;;;2.90;1.35;;;17.80;73.50;;;;;;2369265;55;20985;-67
2023/08/08 06:24:11;;;;;;;1.95;0.80;;;17.80;73.50;;;;;;2360812;55;21589;-67
2023/08/08 06:26:53;;;;;;;1.37;0.70;;;17.90;74.40;;;;;;2389427;55;20969;-67
2023/08/08 06:29:21;;;;;;;1.37;0.60;;;17.90;73.80;;;;;;2167415;57;21155;-68
2023/08/08 06:31:51;;;;;;;1.77;0.80;;;18.00;74.40;;;;;;2418091;55;21515;-67
2023/08/08 06:34:21;;;;;;;2.28;0.82;;;18.00;74.30;;;;;;2400521;55;21105;-68
2023/08/08 06:36:55;;;;;;;2.12;1.00;;;18.10;74.40;;;;;;2172781;57;21550;-68
2023/08/08 06:39:22;;;;;;;1.85;0.80;;;18.10;73.90;;;;;;2360091;56;20974;-68
2023/08/08 06:41:55;;;;;;;3.50;1.15;;;18.20;74.50;;;;;;2170744;56;20981;-69
2023/08/08 06:44:23;;;;;;;3.03;0.93;;;18.30;74.30;;;;;;2396702;55;21116;-69
2023/08/08 06:46:52;;;;;;;1.87;0.80;;;18.20;74.40;;;;;;2172346;56;21665;-70
2023/08/08 06:49:24;;;;;;;2.30;1.08;;;18.30;74.60;;;;;;2184930;56;21053;-70
2023/08/08 06:51:54;;;;;;;2.33;1.05;;;18.40;74.50;;;;;;2379229;56;21421;-69
2023/08/08 06:54:28;;;;;;;3.00;1.00;;;18.40;74.60;;;;;;2402175;55;21733;-71
2023/08/08 06:57:05;;;;;;;2.12;0.95;;;18.50;74.50;;;;;;2376871;56;21470;-70
2023/08/08 06:59:50;;;;;;;2.45;1.05;;;18.50;74.50;;;;;;2170294;56;21834;-71
2023/08/08 07:02:26;;;;;;;2.92;1.60;;;18.60;74.40;;;;;;2139767;57;21133;-70
2023/08/08 07:04:56;;;;;;;4.07;1.60;;;18.70;74.40;;;;;;2378097;55;20990;-69
2023/08/08 07:07:29;;;;;;;4.50;1.60;;;18.70;74.50;;;;;;2152354;57;21506;-70
2023/08/08 07:10:13;;;;;;;3.58;1.67;;;18.80;74.50;;;;;;2367314;55;21600;-70
2023/08/08 07:12:56;;;;;;;3.53;1.37;;;18.80;74.70;;;;;;2159130;56;22033;-70
2023/08/08 07:15:25;;;;;;;2.87;1.27;;;18.90;74.20;;;;;;2173246;56;21124;-69
2023/08/08 07:17:57;;;;;;;3.65;1.20;;;18.90;74.80;;;;;;2356610;56;20996;-70
2023/08/08 07:20:24;;;;;;;3.20;1.67;;;19.00;74.60;;;;;;2377394;56;24925;-70
2023/08/08 07:23:17;;;;;;;2.83;1.27;;;19.00;75.00;;;;;;2396027;55;21886;-70
2023/08/08 07:26:06;;;;;;;3.20;1.20;;;19.10;74.00;;;;;;2174267;56;22138;-73
2023/08/08 07:28:36;;;;;;;5.28;1.37;;;19.20;73.80;;;;;;2373326;55;21469;-69
2023/08/08 07:31:07;;;;;;;3.45;1.10;;;19.30;74.80;;;;;;2381755;55;21096;-68
2023/08/08 07:33:48;;;;;;;2.28;0.93;;;19.30;74.90;;;;;;2340224;56;21469;-68
2023/08/08 07:37:05;;;;;;;2.65;1.08;;;19.40;74.80;;;;;;2139405;59;21969;-68
2023/08/08 07:41:17;;;;;;;;;;;;;;;;;;;;;
2023/08/08 07:44:55;;;;;;;;;;;;;;;;;;;;;
2023/08/08 09:00:13;;;;;;;1.15;0.55;;;19.90;74.40;;;;;;2494167;52;23158;-69
2023/08/08 09:02:39;;;;;;;2.37;0.70;;;22.00;76.30;;;;;;2259662;55;21025;-71
2023/08/08 09:05:07;;;;;;;3.10;0.80;;;22.00;76.30;;;;;;2263438;55;20971;-71
2023/08/08 09:07:33;;;;;;;2.65;1.10;;;22.00;76.10;;;;;;2539805;54;21323;-72
2023/08/08 09:09:59;;;;;;;3.03;0.80;;;22.10;76.20;;;;;;2540648;53;21400;-70
2023/08/08 09:12:27;;;;;;;2.50;1.00;;;22.10;76.00;;;;;;2302852;54;20965;-72
2023/08/08 09:14:56;;;;;;;2.10;0.80;;;22.20;75.70;;;;;;2540278;53;21731;-71
2023/08/08 09:17:26;;;;;;;2.17;0.73;;;22.20;75.70;;;;;;2541248;53;20944;-69
2023/08/08 09:19:59;;;;;;;2.53;0.90;;;22.30;75.80;;;;;;2540622;53;21385;-71
2023/08/08 09:22:27;;;;;;;3.42;0.90;;;22.30;75.60;;;;;;2545769;53;21027;-72
2023/08/08 09:24:53;;;;;;;2.20;0.90;;;22.40;75.40;;;;;;2301909;55;20980;-70
2023/08/08 09:27:20;;;;;;;2.33;1.00;;;22.50;75.30;;;;;;2543307;54;20960;-71
2023/08/08 09:29:47;;;;;;;2.97;1.10;;;22.50;75.10;;;;;;2312400;54;21294;-71
2023/08/08 09:32:14;;;;;;;2.33;0.98;;;22.60;75.00;;;;;;2550461;53;20992;-72
2023/08/08 09:34:45;;;;;;;4.05;0.90;;;22.70;74.80;;;;;;2299148;54;20965;-71
2023/08/08 09:37:11;;;;;;;2.03;1.00;;;22.70;74.50;;;;;;2580503;53;21739;-71
2023/08/08 09:39:40;;;;;;;3.05;1.25;;;22.80;74.40;;;;;;2565223;53;20915;-71
2023/08/08 09:42:11;;;;;;;2.28;0.93;;;22.80;74.20;;;;;;2315759;54;20982;-70
2023/08/08 09:44:38;;;;;;;2.78;1.00;;;22.90;74.20;;;;;;2556146;54;21060;-71
2023/08/08 09:47:04;;;;;;;1.75;0.82;;;22.90;74.50;;;;;;2556100;54;21026;-72
2023/08/08 09:49:34;;;;;;;1.70;0.80;;;23.00;74.60;;;;;;2555951;53;20982;-70
2023/08/08 09:52:00;;;;;;;2.97;1.00;;;23.10;74.70;;;;;;2316020;54;20970;-72
2023/08/08 09:54:27;;;;;;;3.00;1.33;;;23.10;74.40;;;;;;2342698;55;20997;-71
2023/08/08 09:56:54;;;;;;;3.90;1.00;;;23.20;74.40;;;;;;2587889;53;21024;-71
2023/08/08 09:59:21;;;;;;;2.17;0.90;;;23.20;74.20;;;;;;2588981;53;20972;-71
2023/08/08 10:01:51;;;;;;;2.92;1.00;;;23.30;74.90;;;;;;2555838;53;20939;-72
2023/08/08 10:04:18;;;;;;;2.30;1.00;;;23.30;73.90;;;;;;2342547;55;20952;-71
2023/08/08 10:06:45;;;;;;;2.42;1.00;;;23.40;73.90;;;;;;2342153;55;20952;-72
2023/08/08 10:09:12;;;;;;;1.95;0.88;;;23.50;74.20;;;;;;2341840;55;20944;-71
2023/08/08 10:11:41;;;;;;;2.08;1.00;;;23.50;74.00;;;;;;2561665;53;20998;-72
2023/08/08 10:14:10;;;;;;;2.50;1.20;;;23.60;74.00;;;;;;2316924;54;21011;-71
2023/08/08 10:16:38;;;;;;;3.30;0.95;;;23.70;73.50;;;;;;2568953;53;20967;-70
2023/08/08 10:19:05;;;;;;;2.17;1.10;;;23.70;73.70;;;;;;2325998;54;20979;-71
2023/08/08 10:21:33;;;;;;;2.92;1.00;;;23.80;73.70;;;;;;2564227;53;20968;-71
2023/08/08 10:24:08;;;;;;;2.62;0.93;;;23.90;73.80;;;;;;2341316;55;20932;-71
2023/08/08 10:26:34;;;;;;;2.58;1.20;;;23.90;72.90;;;;;;2576922;53;21014;-70
2023/08/08 10:29:03;;;;;;;2.28;1.17;;;24.00;73.60;;;;;;2562889;53;20940;-70
2023/08/08 10:31:35;;;;;;;2.75;1.10;;;24.10;73.40;;;;;;2587751;53;20909;-72
2023/08/08 10:34:02;;;;;;;2.85;1.10;;;24.10;72.80;;;;;;2587141;53;21000;-70
2023/08/08 10:36:52;;;;;;;3.58;1.30;;;24.20;72.90;;;;;;2587958;53;20941;-71
2023/08/08 10:39:19;;;;;;;2.12;0.95;;;24.20;70.50;;;;;;2341828;55;20944;-71
2023/08/08 10:41:51;;;;;;;3.12;1.15;;;24.30;72.70;;;;;;2587120;53;20979;-70
2023/08/08 10:44:24;;;;;;;1.83;0.82;;;24.40;71.70;;;;;;2587916;53;20949;-71
2023/08/08 10:46:51;;;;;;;4.65;1.00;;;24.40;71.00;;;;;;2587212;53;20944;-71
2023/08/08 10:49:17;;;;;;;2.20;0.90;;;24.50;72.10;;;;;;2587283;53;21488;-71
2023/08/08 10:51:46;;;;;;;3.50;1.20;;;24.50;72.00;;;;;;2340923;54;21859;-72
2023/08/08 10:54:14;;;;;;;2.20;1.00;;;24.60;71.70;;;;;;2341607;54;20940;-71
2023/08/08 10:56:47;;;;;;;2.72;1.23;;;24.60;71.40;;;;;;2587113;53;21444;-72
2023/08/08 10:59:19;;;;;;;2.25;0.88;;;24.60;71.40;;;;;;2341792;54;20961;-72
2023/08/08 11:01:49;;;;;;;2.30;0.95;;;24.70;70.80;;;;;;2587494;53;20920;-71
2023/08/08 11:04:16;;;;;;;2.00;0.88;;;24.80;71.60;;;;;;2341446;54;21028;-72
2023/08/08 11:06:42;;;;;;;2.55;1.15;;;24.80;71.40;;;;;;2340504;53;21028;-71
2023/08/08 11:09:09;;;;;;;2.35;1.00;;;24.80;71.60;;;;;;2586870;53;20961;-71
2023/08/08 11:11:37;;;;;;;2.47;1.00;;;24.90;71.70;;;;;;2587167;53;20936;-71
2023/08/08 11:14:18;;;;;;;2.03;1.00;;;24.90;71.40;;;;;;2340450;55;20937;-71
2023/08/08 11:16:45;;;;;;;1.77;0.80;;;25.00;69.80;;;;;;2586747;53;20945;-71
2023/08/08 11:19:12;;;;;;;3.00;0.95;;;25.00;71.50;;;;;;2570729;53;21562;-71
2023/08/08 11:21:43;;;;;;;3.08;0.90;;;25.10;71.30;;;;;;2564033;53;20980;-73
2023/08/08 11:24:12;;;;;;;1.60;0.80;;;25.10;70.70;;;;;;2587059;53;20988;-71
2023/08/08 11:26:39;;;;;;;2.05;0.90;;;25.20;71.40;;;;;;2587047;53;20920;-71
2023/08/08 11:29:07;;;;;;;2.15;0.95;;;25.20;71.00;;;;;;2330858;54;20940;-71
2023/08/08 11:31:34;;;;;;;2.35;0.85;;;25.20;71.00;;;;;;2571058;53;20960;-72
2023/08/08 11:34:01;;;;;;;2.10;0.93;;;25.30;71.00;;;;;;2564140;53;21531;-71
2023/08/08 11:36:33;;;;;;;1.77;0.80;;;25.30;70.90;;;;;;2333337;54;20921;-72
2023/08/08 11:39:07;;;;;;;3.10;0.90;;;25.40;70.30;;;;;;2587037;53;20957;-71
2023/08/08 11:41:34;;;;;;;2.15;0.90;;;25.50;70.80;;;;;;2318815;54;21767;-71
2023/08/08 11:44:01;;;;;;;1.70;0.70;;;25.50;71.30;;;;;;2551567;53;21390;-72
2023/08/08 11:46:30;;;;;;;2.00;0.90;;;25.50;71.20;;;;;;2586535;53;21008;-71
2023/08/08 11:49:06;;;;;;;1.95;0.90;;;25.60;70.80;;;;;;2586879;53;21004;-72
2023/08/08 11:51:33;;;;;;;2.67;1.00;;;25.70;69.80;;;;;;2587278;53;20992;-71
2023/08/08 11:54:00;;;;;;;2.00;0.85;;;25.70;70.80;;;;;;2340059;54;21017;-72
2023/08/08 11:56:32;;;;;;;3.40;1.00;;;25.80;70.70;;;;;;2581412;53;20942;-73
2023/08/08 11:58:59;;;;;;;;;;;25.90;69.40;;;;;;2590899;53;20953;-70
2023/08/08 12:01:26;;;;;;;2.10;0.90;;;25.90;68.40;;;;;;2341271;55;20055;-68
2023/08/08 12:03:52;;;;;;;2.60;0.82;;;26.00;70.80;;;;;;2340461;54;20945;-68
2023/08/08 12:06:19;;;;;;;2.10;0.82;;;26.00;70.10;;;;;;2341458;55;20924;-68
2023/08/08 12:08:49;;;;;;;1.87;0.85;;;26.10;70.00;;;;;;2586976;53;20992;-70
2023/08/08 12:11:17;;;;;;;2.45;0.85;;;26.00;69.90;;;;;;2340737;54;20928;-72
2023/08/08 12:13:50;;;;;;;1.85;0.80;;;26.10;70.00;;;;;;2340499;54;21021;-71
2023/08/08 12:16:16;;;;;;;1.73;0.80;;;26.10;69.40;;;;;;2585888;53;20984;-70
2023/08/08 12:18:43;;;;;;;2.20;1.00;;;26.10;69.10;;;;;;2340799;54;20917;-70
2023/08/08 12:21:10;;;;;;;2.97;1.10;;;26.10;68.70;;;;;;2341691;55;20913;-71
2023/08/08 12:23:36;;;;;;;2.47;0.90;;;26.10;68.20;;;;;;2341328;55;21032;-71
2023/08/08 12:26:05;;;;;;;3.28;1.25;;;26.00;67.80;;;;;;2586016;53;21575;-68
2023/08/08 12:28:31;;;;;;;1.90;0.90;;;26.00;67.70;;;;;;2586989;53;20968;-69
2023/08/08 12:30:58;;;;;;;2.22;0.88;;;26.00;67.60;;;;;;2587138;53;21661;-70
2023/08/08 12:33:24;;;;;;;2.83;1.10;;;26.00;68.00;;;;;;2584323;53;20988;-68
2023/08/08 12:35:51;;;;;;;1.85;0.82;;;25.90;68.00;;;;;;2558023;53;20995;-70
2023/08/08 12:38:18;;;;;;;1.73;0.73;;;25.90;68.50;;;;;;2587180;53;21020;-69
2023/08/08 12:40:44;;;;;;;2.10;0.93;;;25.90;69.10;;;;;;2586439;53;20952;-70
2023/08/08 12:43:17;;;;;;;2.20;0.90;;;25.90;68.60;;;;;;2587192;53;20984;-71
2023/08/08 12:45:47;;;;;;;2.30;0.93;;;25.90;69.00;;;;;;2586789;53;20984;-69
2023/08/08 12:48:13;;;;;;;1.90;0.90;;;25.90;68.70;;;;;;2586781;53;21024;-72
2023/08/08 12:50:40;;;;;;;2.42;0.90;;;25.90;68.80;;;;;;2341689;55;20956;-70
2023/08/08 12:53:07;;;;;;;2.33;0.95;;;26.00;68.70;;;;;;2342224;55;20964;-70
2023/08/08 12:55:34;;;;;;;2.25;0.88;;;26.00;68.70;;;;;;2587579;53;21000;-70
2023/08/08 12:58:01;;;;;;;2.37;1.15;;;26.00;68.40;;;;;;2587475;53;20949;-70
2023/08/08 13:00:32;;;;;;;1.85;0.80;;;26.00;68.10;;;;;;2586963;53;20937;-74
2023/08/08 13:02:58;;;;;;;2.95;0.90;;;26.00;67.90;;;;;;2341505;54;21437;-71
2023/08/08 13:05:25;;;;;;;2.10;1.00;;;26.00;67.80;;;;;;2341809;55;20922;-73
2023/08/08 13:07:51;;;;;;;2.85;1.12;;;26.00;67.70;;;;;;2341276;54;20936;-72
2023/08/08 13:10:19;;;;;;;2.62;1.08;;;26.10;67.60;;;;;;2340669;55;21008;-72
2023/08/08 13:12:47;;;;;;;2.03;0.90;;;26.00;67.50;;;;;;2586919;53;20901;-72
2023/08/08 13:15:13;;;;;;;2.40;0.98;;;26.00;67.20;;;;;;2587193;53;20983;-71
2023/08/08 13:17:40;;;;;;;3.45;1.42;;;26.00;67.20;;;;;;2586218;53;21036;-72
2023/08/08 13:20:07;;;;;;;3.35;1.00;;;26.00;67.20;;;;;;2587487;53;21422;-75
2023/08/08 13:22:34;;;;;;;2.20;0.90;;;26.00;67.60;;;;;;2340752;55;21579;-69
2023/08/08 13:25:01;;;;;;;2.22;1.02;;;26.00;67.50;;;;;;2587295;53;20936;-67
2023/08/08 13:27:27;;;;;;;2.22;1.05;;;26.00;67.40;;;;;;2340777;55;21331;-69
2023/08/08 13:29:54;;;;;;;1.55;0.77;;;26.00;67.40;;;;;;2340975;55;20933;-68
2023/08/08 13:32:23;;;;;;;1.58;0.73;;;26.00;67.70;;;;;;2341228;54;20953;-69
2023/08/08 13:34:49;;;;;;;1.67;0.70;;;26.00;67.70;;;;;;2339896;55;20944;-69
2023/08/08 13:37:16;;;;;;;1.90;1.00;;;26.00;67.40;;;;;;2586497;53;20913;-69
2023/08/08 13:39:42;;;;;;;1.40;0.80;;;25.90;67.20;;;;;;2341140;55;20920;-68
2023/08/08 13:42:09;;;;;;;2.25;0.90;;;25.90;67.30;;;;;;2587386;53;20917;-67
2023/08/08 13:44:37;;;;;;;2.22;0.80;;;25.90;67.20;;;;;;2339909;54;20950;-69
2023/08/08 13:47:03;;;;;;;2.00;0.90;;;25.80;67.20;;;;;;2341708;54;20972;-70
2023/08/08 13:49:29;;;;;;;2.65;0.90;;;25.80;67.30;;;;;;2340829;54;20968;-67
2023/08/08 13:51:56;;;;;;;2.17;0.77;;;25.70;67.20;;;;;;2341320;54;20961;-68
2023/08/08 13:54:23;;;;;;;2.50;0.73;;;25.70;67.30;;;;;;2587198;53;20929;-69
2023/08/08 13:56:49;;;;;;;1.52;0.75;;;25.70;67.20;;;;;;2341498;55;20925;-66
2023/08/08 13:59:17;;;;;;;2.97;1.10;;;25.70;67.50;;;;;;2341504;55;20984;-68
2023/08/08 14:01:43;;;;;;;1.62;0.70;;;25.70;67.60;;;;;;2575459;53;21016;-68
2023/08/08 14:04:11;;;;;;;2.30;0.93;;;25.60;67.80;;;;;;2543686;53;20983;-68
2023/08/08 14:06:38;;;;;;;3.40;0.90;;;25.60;67.80;;;;;;2335387;55;20936;-68
2023/08/08 14:09:07;;;;;;;1.70;0.70;;;25.60;67.80;;;;;;2337294;54;20948;-69
2023/08/08 14:11:33;;;;;;;2.58;1.02;;;25.60;67.50;;;;;;2337571;55;20972;-72
2023/08/08 14:14:00;;;;;;;1.48;0.68;;;25.60;68.00;;;;;;2581894;53;20913;-70
2023/08/08 14:16:27;;;;;;;1.67;0.60;;;25.60;68.10;;;;;;2313734;54;21017;-70